sensor_id;sensor_type;location;lat;lon;timestamp;pressure;altitude;pressure_sealevel;temperature;humidity
40612;BME280;26317;44.894;20.286;2023-03-18T00:01:40;101208.66;;;6.89;56.92
40612;BME280;26317;44.894;20.286;2023-03-18T00:04:17;101203.44;;;6.82;57.47
40612;BME280;26317;44.894;20.286;2023-03-18T00:06:48;101195.31;;;6.77;57.68
40612;BME280;26317;44.894;20.286;2023-03-18T00:09:23;101215.06;;;6.88;57.58
40612;BME280;26317;44.894;20.286;2023-03-18T00:12:09;101203.31;;;6.77;57.63
40612;BME280;26317;44.894;20.286;2023-03-18T00:14:59;101212.34;;;6.76;58.03
40612;BME280;26317;44.894;20.286;2023-03-18T00:17:35;101161.78;;;6.46;58.48
40612;BME280;26317;44.894;20.286;2023-03-18T00:20:13;101194.13;;;6.62;58.99
40612;BME280;26317;44.894;20.286;2023-03-18T00:22:53;101182.09;;;6.59;59.15
40612;BME280;26317;44.894;20.286;2023-03-18T00:25:29;101195.53;;;6.64;59.31
40612;BME280;26317;44.894;20.286;2023-03-18T00:28:08;101192.50;;;6.61;59.35
40612;BME280;26317;44.894;20.286;2023-03-18T00:31:01;101192.38;;;6.56;59.10
40612;BME280;26317;44.894;20.286;2023-03-18T00:33:40;101193.88;;;6.52;59.05
40612;BME280;26317;44.894;20.286;2023-03-18T00:36:24;101186.34;;;6.48;58.77
40612;BME280;26317;44.894;20.286;2023-03-18T00:39:03;101184.13;;;6.45;58.52
40612;BME280;26317;44.894;20.286;2023-03-18T00:44:37;101187.84;;;6.44;58.22
40612;BME280;26317;44.894;20.286;2023-03-18T00:47:12;101178.19;;;6.43;58.16
40612;BME280;26317;44.894;20.286;2023-03-18T00:49:52;101144.22;;;6.27;58.20
40612;BME280;26317;44.894;20.286;2023-03-18T00:52:26;101171.28;;;6.42;58.08
40612;BME280;26317;44.894;20.286;2023-03-18T00:55:01;101161.72;;;6.35;58.11
40612;BME280;26317;44.894;20.286;2023-03-18T00:57:49;101128.06;;;6.11;57.98
40612;BME280;26317;44.894;20.286;2023-03-18T01:00:34;101161.38;;;6.31;57.80
40612;BME280;26317;44.894;20.286;2023-03-18T01:03:09;101152.81;;;6.29;57.52
40612;BME280;26317;44.894;20.286;2023-03-18T01:06:04;101114.25;;;6.02;57.50
40612;BME280;26317;44.894;20.286;2023-03-18T01:08:39;101152.22;;;6.27;57.36
40612;BME280;26317;44.894;20.286;2023-03-18T01:11:25;101147.91;;;6.26;57.48
40612;BME280;26317;44.894;20.286;2023-03-18T01:14:06;101147.34;;;6.24;57.42
40612;BME280;26317;44.894;20.286;2023-03-18T01:16:50;101147.44;;;6.18;57.59
40612;BME280;26317;44.894;20.286;2023-03-18T01:19:28;101143.59;;;6.14;57.34
40612;BME280;26317;44.894;20.286;2023-03-18T01:22:16;101125.38;;;5.99;57.25
40612;BME280;26317;44.894;20.286;2023-03-18T01:24:53;101116.22;;;5.95;57.25
40612;BME280;26317;44.894;20.286;2023-03-18T01:27:36;101145.78;;;6.05;57.56
40612;BME280;26317;44.894;20.286;2023-03-18T01:30:12;101118.72;;;5.90;57.77
40612;BME280;26317;44.894;20.286;2023-03-18T01:33:09;101144.47;;;5.96;58.11
40612;BME280;26317;44.894;20.286;2023-03-18T01:35:51;101144.91;;;5.93;58.38
40612;BME280;26317;44.894;20.286;2023-03-18T01:38:34;101134.53;;;5.85;58.69
40612;BME280;26317;44.894;20.286;2023-03-18T01:41:19;101136.25;;;5.79;59.14
40612;BME280;26317;44.894;20.286;2023-03-18T01:43:57;101130.13;;;5.79;59.48
40612;BME280;26317;44.894;20.286;2023-03-18T01:46:40;101120.81;;;5.70;60.04
40612;BME280;26317;44.894;20.286;2023-03-18T01:49:27;101120.66;;;5.65;60.33
40612;BME280;26317;44.894;20.286;2023-03-18T01:52:07;101113.16;;;5.62;60.69
40612;BME280;26317;44.894;20.286;2023-03-18T01:54:48;101114.03;;;5.55;60.99
40612;BME280;26317;44.894;20.286;2023-03-18T01:57:28;101120.41;;;5.54;61.40
40612;BME280;26317;44.894;20.286;2023-03-18T02:00:22;101109.19;;;5.34;62.35
40612;BME280;26317;44.894;20.286;2023-03-18T02:03:00;101123.22;;;5.41;62.29
40612;BME280;26317;44.894;20.286;2023-03-18T02:05:41;101115.91;;;5.37;62.47
40612;BME280;26317;44.894;20.286;2023-03-18T02:08:22;101104.06;;;5.33;62.92
40612;BME280;26317;44.894;20.286;2023-03-18T02:11:06;101114.34;;;5.29;63.00
40612;BME280;26317;44.894;20.286;2023-03-18T02:13:43;101112.34;;;5.25;63.34
40612;BME280;26317;44.894;20.286;2023-03-18T02:16:33;101113.00;;;5.20;63.44
40612;BME280;26317;44.894;20.286;2023-03-18T02:19:21;101115.22;;;5.23;63.60
40612;BME280;26317;44.894;20.286;2023-03-18T02:22:15;101107.25;;;5.23;63.94
40612;BME280;26317;44.894;20.286;2023-03-18T02:25:10;101105.25;;;5.19;64.15
40612;BME280;26317;44.894;20.286;2023-03-18T02:28:08;101096.97;;;5.08;64.41
40612;BME280;26317;44.894;20.286;2023-03-18T02:30:42;101102.06;;;5.10;64.39
40612;BME280;26317;44.894;20.286;2023-03-18T02:33:30;101104.59;;;5.05;64.80
40612;BME280;26317;44.894;20.286;2023-03-18T02:36:17;101107.09;;;5.00;65.21
40612;BME280;26317;44.894;20.286;2023-03-18T02:39:10;101100.97;;;4.99;65.20
40612;BME280;26317;44.894;20.286;2023-03-18T02:41:52;101103.44;;;4.94;65.63
40612;BME280;26317;44.894;20.286;2023-03-18T02:44:42;101111.06;;;4.91;65.87
40612;BME280;26317;44.894;20.286;2023-03-18T02:47:48;101107.06;;;4.82;65.73
40612;BME280;26317;44.894;20.286;2023-03-18T02:50:28;101099.97;;;4.76;66.10
40612;BME280;26317;44.894;20.286;2023-03-18T02:53:20;101105.13;;;4.71;66.44
40612;BME280;26317;44.894;20.286;2023-03-18T02:55:55;101090.84;;;4.65;67.01
40612;BME280;26317;44.894;20.286;2023-03-18T02:58:34;101093.50;;;4.65;67.11
40612;BME280;26317;44.894;20.286;2023-03-18T03:01:23;101079.09;;;4.54;67.70
40612;BME280;26317;44.894;20.286;2023-03-18T03:04:01;101087.06;;;4.54;68.04
40612;BME280;26317;44.894;20.286;2023-03-18T03:06:42;101077.59;;;4.40;68.61
40612;BME280;26317;44.894;20.286;2023-03-18T03:09:30;101094.25;;;4.47;68.86
40612;BME280;26317;44.894;20.286;2023-03-18T03:12:07;101097.75;;;4.48;69.30
40612;BME280;26317;44.894;20.286;2023-03-18T03:14:53;101083.91;;;4.39;69.54
40612;BME280;26317;44.894;20.286;2023-03-18T03:17:34;101090.66;;;4.42;69.89
40612;BME280;26317;44.894;20.286;2023-03-18T03:20:24;101089.06;;;4.34;70.52
40612;BME280;26317;44.894;20.286;2023-03-18T03:23:02;101088.69;;;4.31;70.41
40612;BME280;26317;44.894;20.286;2023-03-18T03:25:41;101088.91;;;4.29;71.30
40612;BME280;26317;44.894;20.286;2023-03-18T03:28:24;101101.00;;;4.25;71.03
40612;BME280;26317;44.894;20.286;2023-03-18T03:31:02;101098.97;;;4.21;71.71
40612;BME280;26317;44.894;20.286;2023-03-18T03:33:47;101090.03;;;4.15;71.99
40612;BME280;26317;44.894;20.286;2023-03-18T03:36:36;101090.47;;;4.12;72.27
40612;BME280;26317;44.894;20.286;2023-03-18T03:39:23;101096.22;;;4.09;72.45
40612;BME280;26317;44.894;20.286;2023-03-18T03:41:56;101091.47;;;4.11;72.61
40612;BME280;26317;44.894;20.286;2023-03-18T03:44:30;101092.50;;;4.10;72.43
40612;BME280;26317;44.894;20.286;2023-03-18T03:49:54;101074.22;;;3.95;72.88
40612;BME280;26317;44.894;20.286;2023-03-18T03:52:38;101100.84;;;4.13;72.85
40612;BME280;26317;44.894;20.286;2023-03-18T03:55:31;101099.50;;;4.04;73.36
40612;BME280;26317;44.894;20.286;2023-03-18T03:58:18;101104.16;;;4.09;73.46
40612;BME280;26317;44.894;20.286;2023-03-18T04:00:55;101099.88;;;4.08;73.33
40612;BME280;26317;44.894;20.286;2023-03-18T04:03:33;101100.47;;;4.10;73.80
40612;BME280;26317;44.894;20.286;2023-03-18T04:06:12;101087.44;;;4.02;73.62
40612;BME280;26317;44.894;20.286;2023-03-18T04:09:01;101095.59;;;4.07;73.82
40612;BME280;26317;44.894;20.286;2023-03-18T04:11:45;101110.81;;;4.18;73.89
40612;BME280;26317;44.894;20.286;2023-03-18T04:14:24;101108.44;;;4.10;73.52
40612;BME280;26317;44.894;20.286;2023-03-18T04:17:10;101114.78;;;4.09;73.96
40612;BME280;26317;44.894;20.286;2023-03-18T04:19:45;101111.69;;;4.12;74.30
40612;BME280;26317;44.894;20.286;2023-03-18T04:22:36;101101.91;;;4.06;74.47
40612;BME280;26317;44.894;20.286;2023-03-18T04:25:26;101104.81;;;4.04;74.44
40612;BME280;26317;44.894;20.286;2023-03-18T04:28:09;101112.59;;;3.99;74.75
40612;BME280;26317;44.894;20.286;2023-03-18T04:30:47;101111.97;;;3.97;74.91
40612;BME280;26317;44.894;20.286;2023-03-18T04:33:27;101105.25;;;3.95;75.22
40612;BME280;26317;44.894;20.286;2023-03-18T04:36:03;101104.81;;;3.98;75.64
40612;BME280;26317;44.894;20.286;2023-03-18T04:38:48;101111.34;;;4.02;75.44
40612;BME280;26317;44.894;20.286;2023-03-18T04:41:34;101115.81;;;4.08;75.56
40612;BME280;26317;44.894;20.286;2023-03-18T04:44:13;101097.88;;;4.03;75.83
40612;BME280;26317;44.894;20.286;2023-03-18T04:46:53;101107.59;;;4.09;76.06
40612;BME280;26317;44.894;20.286;2023-03-18T04:49:34;101110.94;;;4.05;76.08
40612;BME280;26317;44.894;20.286;2023-03-18T04:52:16;101108.50;;;3.97;75.97
40612;BME280;26317;44.894;20.286;2023-03-18T04:54:54;101098.75;;;3.91;76.42
40612;BME280;26317;44.894;20.286;2023-03-18T05:00:21;101119.53;;;4.00;76.76
40612;BME280;26317;44.894;20.286;2023-03-18T05:03:14;101131.97;;;4.00;77.21
40612;BME280;26317;44.894;20.286;2023-03-18T05:05:50;101127.69;;;3.99;77.90
40612;BME280;26317;44.894;20.286;2023-03-18T05:08:42;101128.28;;;4.01;77.99
40612;BME280;26317;44.894;20.286;2023-03-18T05:11:22;101113.28;;;3.88;77.90
40612;BME280;26317;44.894;20.286;2023-03-18T05:14:08;101128.13;;;3.96;78.18
40612;BME280;26317;44.894;20.286;2023-03-18T05:16:50;101130.78;;;3.96;78.81
40612;BME280;26317;44.894;20.286;2023-03-18T05:19:30;101139.56;;;3.96;78.32
40612;BME280;26317;44.894;20.286;2023-03-18T05:22:11;101137.69;;;3.97;78.54
40612;BME280;26317;44.894;20.286;2023-03-18T05:25:14;101135.03;;;4.03;78.58
40612;BME280;26317;44.894;20.286;2023-03-18T05:27:53;101139.06;;;4.06;78.79
40612;BME280;26317;44.894;20.286;2023-03-18T05:30:47;101131.94;;;4.06;78.57
40612;BME280;26317;44.894;20.286;2023-03-18T05:33:24;101140.66;;;4.13;79.18
40612;BME280;26317;44.894;20.286;2023-03-18T05:36:10;101145.34;;;4.18;79.26
40612;BME280;26317;44.894;20.286;2023-03-18T05:38:58;101146.31;;;4.24;78.92
40612;BME280;26317;44.894;20.286;2023-03-18T05:41:35;101140.81;;;4.25;78.89
40612;BME280;26317;44.894;20.286;2023-03-18T05:44:17;101125.91;;;4.24;78.60
40612;BME280;26317;44.894;20.286;2023-03-18T05:47:03;101143.38;;;4.38;78.59
40612;BME280;26317;44.894;20.286;2023-03-18T05:50:06;101142.06;;;4.47;78.49
40612;BME280;26317;44.894;20.286;2023-03-18T05:52:53;101150.97;;;4.59;78.43
40612;BME280;26317;44.894;20.286;2023-03-18T05:55:43;101118.41;;;4.46;77.95
40612;BME280;26317;44.894;20.286;2023-03-18T05:58:29;101162.09;;;4.75;78.26
40612;BME280;26317;44.894;20.286;2023-03-18T06:01:40;101159.19;;;4.83;77.87
40612;BME280;26317;44.894;20.286;2023-03-18T06:04:24;101156.53;;;4.83;77.83
40612;BME280;26317;44.894;20.286;2023-03-18T06:07:01;101155.63;;;4.89;78.10
40612;BME280;26317;44.894;20.286;2023-03-18T06:09:42;101169.41;;;5.04;78.16
40612;BME280;26317;44.894;20.286;2023-03-18T06:12:34;101170.16;;;5.11;78.15
40612;BME280;26317;44.894;20.286;2023-03-18T06:15:19;101168.84;;;5.20;78.05
40612;BME280;26317;44.894;20.286;2023-03-18T06:18:13;101159.97;;;5.26;77.92
40612;BME280;26317;44.894;20.286;2023-03-18T06:20:50;101171.53;;;5.38;77.95
40612;BME280;26317;44.894;20.286;2023-03-18T06:23:32;101175.66;;;5.52;77.51
40612;BME280;26317;44.894;20.286;2023-03-18T06:26:09;101182.69;;;5.65;77.12
40612;BME280;26317;44.894;20.286;2023-03-18T06:28:56;101183.97;;;5.63;76.34
40612;BME280;26317;44.894;20.286;2023-03-18T06:31:46;101183.41;;;5.72;76.07
40612;BME280;26317;44.894;20.286;2023-03-18T06:34:28;101185.03;;;5.73;75.98
40612;BME280;26317;44.894;20.286;2023-03-18T06:37:11;101197.56;;;5.91;76.14
40612;BME280;26317;44.894;20.286;2023-03-18T06:39:49;101185.91;;;5.85;75.68
40612;BME280;26317;44.894;20.286;2023-03-18T06:42:34;101200.22;;;6.09;75.29
40612;BME280;26317;44.894;20.286;2023-03-18T06:45:27;101183.84;;;6.06;74.51
40612;BME280;26317;44.894;20.286;2023-03-18T06:48:11;101191.91;;;6.17;74.41
40612;BME280;26317;44.894;20.286;2023-03-18T06:50:47;101175.47;;;6.20;73.32
40612;BME280;26317;44.894;20.286;2023-03-18T06:53:29;101202.56;;;6.47;73.01
40612;BME280;26317;44.894;20.286;2023-03-18T06:56:10;101195.03;;;6.56;72.44
40612;BME280;26317;44.894;20.286;2023-03-18T06:59:10;101202.97;;;6.74;70.68
40612;BME280;26317;44.894;20.286;2023-03-18T07:01:54;101189.06;;;6.72;70.60
40612;BME280;26317;44.894;20.286;2023-03-18T07:04:36;101182.69;;;6.73;69.91
40612;BME280;26317;44.894;20.286;2023-03-18T07:07:20;101189.09;;;6.95;69.42
40612;BME280;26317;44.894;20.286;2023-03-18T07:10:04;101205.56;;;7.15;69.21
40612;BME280;26317;44.894;20.286;2023-03-18T07:12:49;101200.47;;;7.25;68.83
40612;BME280;26317;44.894;20.286;2023-03-18T07:15:38;101209.84;;;7.39;67.84
40612;BME280;26317;44.894;20.286;2023-03-18T07:18:13;101208.47;;;7.49;67.69
40612;BME280;26317;44.894;20.286;2023-03-18T07:20:54;101216.81;;;7.64;67.23
40612;BME280;26317;44.894;20.286;2023-03-18T07:23:40;101181.22;;;7.47;65.58
40612;BME280;26317;44.894;20.286;2023-03-18T07:26:31;101215.03;;;7.81;66.17
40612;BME280;26317;44.894;20.286;2023-03-18T07:29:14;101216.06;;;7.92;65.13
40612;BME280;26317;44.894;20.286;2023-03-18T07:32:00;101199.22;;;7.91;64.81
40612;BME280;26317;44.894;20.286;2023-03-18T07:34:50;101220.88;;;8.18;64.77
40612;BME280;26317;44.894;20.286;2023-03-18T07:37:53;101207.25;;;8.19;64.11
40612;BME280;26317;44.894;20.286;2023-03-18T07:40:41;101219.97;;;8.41;62.71
40612;BME280;26317;44.894;20.286;2023-03-18T07:46:05;101226.81;;;8.65;62.03
40612;BME280;26317;44.894;20.286;2023-03-18T07:49:01;101217.94;;;8.76;60.53
40612;BME280;26317;44.894;20.286;2023-03-18T07:51:37;101215.69;;;8.85;58.56
40612;BME280;26317;44.894;20.286;2023-03-18T07:54:19;101207.25;;;8.93;56.64
40612;BME280;26317;44.894;20.286;2023-03-18T07:56:57;101227.13;;;9.13;56.70
40612;BME280;26317;44.894;20.286;2023-03-18T07:59:45;101221.81;;;9.18;56.84
40612;BME280;26317;44.894;20.286;2023-03-18T08:02:22;101221.97;;;9.29;56.73
40612;BME280;26317;44.894;20.286;2023-03-18T08:05:11;101222.47;;;9.42;56.89
40612;BME280;26317;44.894;20.286;2023-03-18T08:07:54;101202.91;;;9.42;54.83
40612;BME280;26317;44.894;20.286;2023-03-18T08:10:38;101230.03;;;9.67;55.07
40612;BME280;26317;44.894;20.286;2023-03-18T08:13:31;101228.78;;;9.75;54.31
40612;BME280;26317;44.894;20.286;2023-03-18T08:16:09;101235.03;;;9.80;54.13
40612;BME280;26317;44.894;20.286;2023-03-18T08:18:43;101229.31;;;9.93;54.35
40612;BME280;26317;44.894;20.286;2023-03-18T08:21:22;101240.16;;;10.03;54.16
40612;BME280;26317;44.894;20.286;2023-03-18T08:24:01;101244.34;;;10.16;54.33
40612;BME280;26317;44.894;20.286;2023-03-18T08:26:49;101222.66;;;10.18;53.27
40612;BME280;26317;44.894;20.286;2023-03-18T08:29:34;101230.81;;;10.28;53.01
40612;BME280;26317;44.894;20.286;2023-03-18T08:32:10;101210.84;;;10.19;53.09
40612;BME280;26317;44.894;20.286;2023-03-18T08:34:57;101246.06;;;10.49;53.16
40612;BME280;26317;44.894;20.286;2023-03-18T08:37:34;101243.03;;;10.67;53.65
40612;BME280;26317;44.894;20.286;2023-03-18T08:40:24;101236.69;;;10.78;53.13
40612;BME280;26317;44.894;20.286;2023-03-18T08:43:07;101232.53;;;10.92;52.72
40612;BME280;26317;44.894;20.286;2023-03-18T08:46:11;101237.66;;;10.99;53.37
40612;BME280;26317;44.894;20.286;2023-03-18T08:48:49;101232.09;;;11.05;50.88
40612;BME280;26317;44.894;20.286;2023-03-18T08:51:38;101232.13;;;11.11;50.96
40612;BME280;26317;44.894;20.286;2023-03-18T08:54:14;101238.06;;;11.13;51.75
40612;BME280;26317;44.894;20.286;2023-03-18T08:56:51;101213.31;;;11.05;50.63
40612;BME280;26317;44.894;20.286;2023-03-18T08:59:28;101234.88;;;11.21;49.83
40612;BME280;26317;44.894;20.286;2023-03-18T09:02:16;101228.50;;;11.27;51.12
40612;BME280;26317;44.894;20.286;2023-03-18T09:05:01;101227.78;;;11.41;50.37
40612;BME280;26317;44.894;20.286;2023-03-18T09:07:44;101203.53;;;11.31;50.85
40612;BME280;26317;44.894;20.286;2023-03-18T09:10:41;101226.03;;;11.62;50.90
40612;BME280;26317;44.894;20.286;2023-03-18T09:13:24;101236.88;;;11.77;50.02
40612;BME280;26317;44.894;20.286;2023-03-18T09:16:10;101232.66;;;11.91;50.08
40612;BME280;26317;44.894;20.286;2023-03-18T09:18:55;101230.28;;;12.00;48.10
40612;BME280;26317;44.894;20.286;2023-03-18T09:21:30;101239.97;;;12.06;48.22
40612;BME280;26317;44.894;20.286;2023-03-18T09:24:05;101234.91;;;12.15;48.45
40612;BME280;26317;44.894;20.286;2023-03-18T09:26:46;101229.25;;;12.16;48.10
40612;BME280;26317;44.894;20.286;2023-03-18T09:29:38;101222.00;;;12.17;48.54
40612;BME280;26317;44.894;20.286;2023-03-18T09:32:12;101215.56;;;12.23;49.84
40612;BME280;26317;44.894;20.286;2023-03-18T09:35:08;101234.97;;;12.40;48.79
40612;BME280;26317;44.894;20.286;2023-03-18T09:37:44;101189.72;;;12.17;48.27
40612;BME280;26317;44.894;20.286;2023-03-18T09:40:25;101238.50;;;12.51;46.77
40612;BME280;26317;44.894;20.286;2023-03-18T09:43:11;101221.28;;;12.47;45.47
40612;BME280;26317;44.894;20.286;2023-03-18T09:45:57;101231.78;;;12.58;45.97
40612;BME280;26317;44.894;20.286;2023-03-18T09:48:54;101216.69;;;12.57;46.65
40612;BME280;26317;44.894;20.286;2023-03-18T09:51:50;101227.50;;;12.67;46.94
40612;BME280;26317;44.894;20.286;2023-03-18T09:54:37;101209.19;;;12.64;46.50
40612;BME280;26317;44.894;20.286;2023-03-18T09:57:24;101222.09;;;12.77;47.01
40612;BME280;26317;44.894;20.286;2023-03-18T10:00:08;101193.03;;;12.69;45.99
40612;BME280;26317;44.894;20.286;2023-03-18T10:02:52;101219.69;;;12.96;45.33
40612;BME280;26317;44.894;20.286;2023-03-18T10:05:50;101203.53;;;12.91;45.15
40612;BME280;26317;44.894;20.286;2023-03-18T10:08:44;101211.63;;;13.06;44.93
40612;BME280;26317;44.894;20.286;2023-03-18T10:11:29;101225.09;;;13.16;43.49
40612;BME280;26317;44.894;20.286;2023-03-18T10:14:32;101211.13;;;13.14;44.32
40612;BME280;26317;44.894;20.286;2023-03-18T10:17:20;101206.00;;;13.13;46.66
40612;BME280;26317;44.894;20.286;2023-03-18T10:20:00;101225.88;;;13.37;48.17
40612;BME280;26317;44.894;20.286;2023-03-18T10:23:01;101222.38;;;13.47;43.96
40612;BME280;26317;44.894;20.286;2023-03-18T10:25:48;101221.00;;;13.49;44.46
40612;BME280;26317;44.894;20.286;2023-03-18T10:31:49;101203.47;;;13.57;46.84
40612;BME280;26317;44.894;20.286;2023-03-18T10:34:51;101190.28;;;13.55;46.33
40612;BME280;26317;44.894;20.286;2023-03-18T10:37:38;101209.63;;;13.72;45.87
40612;BME280;26317;44.894;20.286;2023-03-18T10:40:23;101218.72;;;13.87;46.63
40612;BME280;26317;44.894;20.286;2023-03-18T10:43:14;101216.28;;;13.95;45.08
40612;BME280;26317;44.894;20.286;2023-03-18T10:45:58;101221.41;;;14.02;44.85
40612;BME280;26317;44.894;20.286;2023-03-18T10:48:43;101212.69;;;14.15;45.10
40612;BME280;26317;44.894;20.286;2023-03-18T10:51:33;101203.47;;;14.21;45.52
40612;BME280;26317;44.894;20.286;2023-03-18T10:54:29;101204.84;;;14.23;42.51
40612;BME280;26317;44.894;20.286;2023-03-18T10:57:12;101197.53;;;14.24;43.56
40612;BME280;26317;44.894;20.286;2023-03-18T10:59:53;101199.13;;;14.30;43.71
40612;BME280;26317;44.894;20.286;2023-03-18T11:02:48;101207.22;;;14.30;41.38
40612;BME280;26317;44.894;20.286;2023-03-18T11:05:36;101191.28;;;14.39;41.66
40612;BME280;26317;44.894;20.286;2023-03-18T11:08:33;101195.03;;;14.43;43.83
40612;BME280;26317;44.894;20.286;2023-03-18T11:11:23;101187.41;;;14.50;42.96
40612;BME280;26317;44.894;20.286;2023-03-18T11:14:19;101186.00;;;14.57;39.13
40612;BME280;26317;44.894;20.286;2023-03-18T11:17:04;101190.78;;;14.65;41.29
40612;BME280;26317;44.894;20.286;2023-03-18T11:19:58;101170.09;;;14.56;42.02
40612;BME280;26317;44.894;20.286;2023-03-18T11:22:43;101173.44;;;14.77;40.70
40612;BME280;26317;44.894;20.286;2023-03-18T11:25:34;101186.00;;;14.91;39.69
40612;BME280;26317;44.894;20.286;2023-03-18T11:28:26;101181.34;;;15.02;38.71
40612;BME280;26317;44.894;20.286;2023-03-18T11:31:22;101172.38;;;15.06;38.55
40612;BME280;26317;44.894;20.286;2023-03-18T11:34:09;101171.00;;;15.09;37.50
40612;BME280;26317;44.894;20.286;2023-03-18T11:37:00;101159.56;;;15.17;37.54
40612;BME280;26317;44.894;20.286;2023-03-18T11:39:40;101171.94;;;15.23;36.65
40612;BME280;26317;44.894;20.286;2023-03-18T11:42:23;101149.38;;;15.09;38.48
40612;BME280;26317;44.894;20.286;2023-03-18T11:45:37;101153.25;;;15.27;38.39
40612;BME280;26317;44.894;20.286;2023-03-18T11:48:20;101149.06;;;15.39;39.39
40612;BME280;26317;44.894;20.286;2023-03-18T11:51:30;101132.34;;;15.32;38.99
40612;BME280;26317;44.894;20.286;2023-03-18T11:57:36;101148.56;;;15.61;38.43
40612;BME280;26317;44.894;20.286;2023-03-18T12:00:26;101126.84;;;15.66;38.72
40612;BME280;26317;44.894;20.286;2023-03-18T12:03:26;101115.63;;;15.78;38.14
40612;BME280;26317;44.894;20.286;2023-03-18T12:06:21;101125.72;;;15.91;36.67
40612;BME280;26317;44.894;20.286;2023-03-18T12:09:13;101122.22;;;15.90;36.60
40612;BME280;26317;44.894;20.286;2023-03-18T12:12:16;101129.91;;;16.02;36.67
40612;BME280;26317;44.894;20.286;2023-03-18T12:14:57;101125.53;;;16.06;35.43
40612;BME280;26317;44.894;20.286;2023-03-18T12:17:41;101135.25;;;16.07;36.19
40612;BME280;26317;44.894;20.286;2023-03-18T12:20:42;101120.09;;;16.06;37.07
40612;BME280;26317;44.894;20.286;2023-03-18T12:26:48;101117.03;;;16.31;35.21
40612;BME280;26317;44.894;20.286;2023-03-18T12:29:49;101112.84;;;16.39;36.47
40612;BME280;26317;44.894;20.286;2023-03-18T12:32:30;101114.06;;;16.46;36.11
40612;BME280;26317;44.894;20.286;2023-03-18T12:35:47;101099.44;;;16.47;36.96
40612;BME280;26317;44.894;20.286;2023-03-18T12:41:56;101071.69;;;16.37;32.99
40612;BME280;26317;44.894;20.286;2023-03-18T12:44:46;101107.31;;;16.63;33.60
40612;BME280;26317;44.894;20.286;2023-03-18T12:47:31;101107.16;;;16.73;34.62
40612;BME280;26317;44.894;20.286;2023-03-18T12:50:16;101098.03;;;16.69;33.85
40612;BME280;26317;44.894;20.286;2023-03-18T12:53:02;101114.19;;;16.74;34.60
40612;BME280;26317;44.894;20.286;2023-03-18T12:55:59;101103.75;;;16.81;35.52
40612;BME280;26317;44.894;20.286;2023-03-18T12:58:47;101085.50;;;16.73;36.36
40612;BME280;26317;44.894;20.286;2023-03-18T13:01:27;101085.00;;;16.84;35.86
40612;BME280;26317;44.894;20.286;2023-03-18T13:04:22;101102.22;;;17.07;35.39
40612;BME280;26317;44.894;20.286;2023-03-18T13:07:07;101098.28;;;17.13;34.49
40612;BME280;26317;44.894;20.286;2023-03-18T13:09:54;101101.19;;;17.17;33.73
40612;BME280;26317;44.894;20.286;2023-03-18T13:12:34;101107.13;;;17.19;34.56
40612;BME280;26317;44.894;20.286;2023-03-18T13:15:20;101097.19;;;17.28;34.42
40612;BME280;26317;44.894;20.286;2023-03-18T13:18:04;101100.91;;;17.32;33.63
40612;BME280;26317;44.894;20.286;2023-03-18T13:20:44;101097.59;;;17.35;33.31
40612;BME280;26317;44.894;20.286;2023-03-18T13:23:44;101100.59;;;17.33;32.04
40612;BME280;26317;44.894;20.286;2023-03-18T13:26:50;101103.63;;;17.32;33.58
40612;BME280;26317;44.894;20.286;2023-03-18T13:29:52;101087.72;;;17.39;33.62
40612;BME280;26317;44.894;20.286;2023-03-18T13:32:45;101088.94;;;17.46;32.18
40612;BME280;26317;44.894;20.286;2023-03-18T13:39:02;101086.22;;;17.46;33.04
40612;BME280;26317;44.894;20.286;2023-03-18T13:42:27;101087.41;;;17.54;32.37
40612;BME280;26317;44.894;20.286;2023-03-18T13:45:10;101087.53;;;17.63;32.74
40612;BME280;26317;44.894;20.286;2023-03-18T13:48:08;101059.47;;;17.54;32.75
40612;BME280;26317;44.894;20.286;2023-03-18T13:50:52;101083.31;;;17.57;32.28
40612;BME280;26317;44.894;20.286;2023-03-18T13:53:31;101083.91;;;17.67;32.17
40612;BME280;26317;44.894;20.286;2023-03-18T13:56:30;101085.22;;;17.56;31.91
40612;BME280;26317;44.894;20.286;2023-03-18T13:59:43;101080.91;;;17.41;31.33
40612;BME280;26317;44.894;20.286;2023-03-18T14:02:43;101076.38;;;17.37;32.53
40612;BME280;26317;44.894;20.286;2023-03-18T14:05:36;101070.47;;;17.21;32.23
40612;BME280;26317;44.894;20.286;2023-03-18T14:11:53;101071.66;;;16.88;32.30
40612;BME280;26317;44.894;20.286;2023-03-18T14:15:00;101073.88;;;16.86;31.95
40612;BME280;26317;44.894;20.286;2023-03-18T14:17:47;101049.56;;;16.67;31.85
40612;BME280;26317;44.894;20.286;2023-03-18T14:20:50;101060.78;;;16.74;31.72
40612;BME280;26317;44.894;20.286;2023-03-18T14:23:43;101067.63;;;16.72;33.47
40612;BME280;26317;44.894;20.286;2023-03-18T14:26:37;101058.59;;;16.76;34.99
40612;BME280;26317;44.894;20.286;2023-03-18T14:29:33;101067.63;;;16.72;35.08
40612;BME280;26317;44.894;20.286;2023-03-18T14:32:39;101066.41;;;16.64;36.03
40612;BME280;26317;44.894;20.286;2023-03-18T14:35:28;101056.75;;;16.58;35.27
40612;BME280;26317;44.894;20.286;2023-03-18T14:38:23;101067.88;;;16.56;35.00
40612;BME280;26317;44.894;20.286;2023-03-18T14:41:15;101053.88;;;16.49;35.53
40612;BME280;26317;44.894;20.286;2023-03-18T14:44:14;101044.19;;;16.48;36.37
40612;BME280;26317;44.894;20.286;2023-03-18T14:47:02;101047.03;;;16.38;36.64
40612;BME280;26317;44.894;20.286;2023-03-18T14:50:14;101059.56;;;16.34;37.51
40612;BME280;26317;44.894;20.286;2023-03-18T14:53:03;101066.59;;;16.35;38.58
40612;BME280;26317;44.894;20.286;2023-03-18T14:58:51;101068.16;;;16.23;38.75